Time;durP1;ratioP1;P1;durP2;ratioP2;P2;SDS_P1;SDS_P2;PMS_P1;PMS_P2;Temp;Humidity;BMP_temperature;BMP_pressure;BME280_temperature;BME280_humidity;BME280_pressure;Samples;Min_cycle;Max_cycle;Signal;HPM_P1;HPM_P2
2022/03/15 00:00:32;;;;;;;6.53;4.07;;;;;;;3.37;100.00;96937.91;5092447;28;24795;-71
2022/03/15 00:02:59;;;;;;;12.87;4.60;;;;;;;3.45;100.00;96935.22;5093007;28;24518;-71
2022/03/15 00:05:26;;;;;;;8.07;5.10;;;;;;;3.55;100.00;96921.41;5092803;28;24418;-71
2022/03/15 00:07:52;;;;;;;7.85;4.75;;;;;;;3.61;100.00;96923.88;5092691;28;24430;-71
2022/03/15 00:10:19;;;;;;;8.80;4.95;;;;;;;3.69;100.00;96918.63;5092561;28;24418;-71
2022/03/15 00:12:47;;;;;;;7.10;4.43;;;;;;;3.65;99.42;96917.84;5092656;28;24527;-71
2022/03/15 00:15:14;;;;;;;6.28;4.15;;;;;;;3.60;98.87;96919.63;5092405;28;24513;-71
2022/03/15 00:17:42;;;;;;;6.18;4.18;;;;;;;3.41;100.00;96926.75;5092464;28;24472;-71
2022/03/15 00:20:13;;;;;;;6.07;4.30;;;;;;;3.34;100.00;96920.06;5092269;28;24442;-71
2022/03/15 00:22:39;;;;;;;8.73;4.63;;;;;;;3.38;100.00;96932.78;5092222;28;24429;-71
2022/03/15 00:25:08;;;;;;;9.77;5.35;;;;;;;3.37;100.00;96922.56;5092296;28;24444;-71
2022/03/15 00:27:35;;;;;;;6.78;4.55;;;;;;;3.44;98.98;96931.00;5092086;28;24418;-71
2022/03/15 00:30:06;;;;;;;7.78;5.38;;;;;;;3.39;100.00;96931.06;5092214;28;24422;-71
2022/03/15 00:32:33;;;;;;;9.98;5.35;;;;;;;3.25;100.00;96935.56;5092350;28;24768;-71
2022/03/15 00:34:59;;;;;;;7.95;5.57;;;;;;;3.11;100.00;96935.75;5091944;28;24943;-71
2022/03/15 00:37:27;;;;;;;9.63;5.70;;;;;;;3.15;100.00;96929.72;5092081;28;24437;-71
2022/03/15 00:39:53;;;;;;;8.50;5.47;;;;;;;3.36;100.00;96926.84;5091759;28;24999;-71
2022/03/15 00:42:20;;;;;;;9.07;5.95;;;;;;;3.30;100.00;96916.72;5091938;28;21480;-71
2022/03/15 00:44:46;;;;;;;8.32;5.88;;;;;;;3.21;100.00;96921.13;5092083;28;24422;-71
2022/03/15 00:47:14;;;;;;;10.48;5.05;;;;;;;3.29;100.00;96915.00;5091900;28;24471;-71
2022/03/15 00:49:40;;;;;;;7.27;4.60;;;;;;;3.31;100.00;96912.44;5091119;28;24787;-71
2022/03/15 00:52:07;;;;;;;7.13;4.83;;;;;;;3.13;100.00;96911.84;5091848;28;24468;-71
2022/03/15 00:54:34;;;;;;;7.35;4.90;;;;;;;3.13;100.00;96911.84;5091776;28;25024;-71
2022/03/15 00:57:00;;;;;;;9.23;5.45;;;;;;;3.30;100.00;96905.59;5091799;28;24418;-71
2022/03/15 00:59:26;;;;;;;9.77;5.20;;;;;;;3.26;100.00;96906.50;5091083;28;24414;-71
2022/03/15 01:01:53;;;;;;;8.43;5.38;;;;;;;3.17;100.00;96891.31;5091006;28;24978;-71
2022/03/15 01:04:21;;;;;;;10.85;5.75;;;;;;;3.17;100.00;96894.72;5091746;28;24471;-71
2022/03/15 01:06:47;;;;;;;9.23;5.85;;;;;;;3.23;100.00;96894.63;5091399;28;24418;-71
2022/03/15 01:09:13;;;;;;;7.25;5.50;;;;;;;3.29;100.00;96899.63;5091215;28;24418;-71
2022/03/15 01:11:40;;;;;;;8.68;6.13;;;;;;;3.34;100.00;96900.41;5091608;28;24413;-71
2022/03/15 01:14:07;;;;;;;7.32;4.57;;;;;;;3.29;100.00;96896.22;5091771;28;24418;-71
2022/03/15 01:16:34;;;;;;;8.55;3.40;;;;;;;3.21;100.00;96892.94;5091066;28;24433;-71
2022/03/15 01:19:00;;;;;;;10.02;3.13;;;;;;;3.14;100.00;96887.91;5091375;28;24517;-71
2022/03/15 01:21:29;;;;;;;4.35;2.60;;;;;;;3.27;100.00;96874.94;5091283;28;24475;-71
2022/03/15 01:23:55;;;;;;;5.93;2.50;;;;;;;3.32;100.00;96873.13;5091121;28;24484;-71
2022/03/15 01:26:22;;;;;;;5.68;2.85;;;;;;;3.40;100.00;96881.53;5091261;28;24457;-71
2022/03/15 01:28:48;;;;;;;7.20;4.20;;;;;;;3.49;100.00;96870.31;5090933;28;24877;-71
2022/03/15 01:31:15;;;;;;;5.80;3.13;;;;;;;3.34;100.00;96861.16;5091179;28;24407;-71
2022/03/15 01:33:41;;;;;;;5.88;4.55;;;;;;;3.44;100.00;96856.72;5091094;28;24421;-71
2022/03/15 01:36:08;;;;;;;7.15;4.30;;;;;;;3.23;100.00;96860.50;5090837;28;24450;-71
2022/03/15 01:38:36;;;;;;;6.35;4.80;;;;;;;3.17;100.00;96853.75;5090722;28;24593;-71
2022/03/15 01:41:03;;;;;;;6.75;4.82;;;;;;;3.17;100.00;96850.34;5091102;28;24441;-71
2022/03/15 01:43:29;;;;;;;6.05;4.13;;;;;;;3.27;100.00;96849.34;5091014;28;24414;-71
2022/03/15 01:45:56;;;;;;;8.75;4.60;;;;;;;3.06;100.00;96864.16;5090683;28;24996;-71
2022/03/15 01:48:23;;;;;;;12.65;5.45;;;;;;;3.10;100.00;96863.25;5090690;28;24422;-71
2022/03/15 01:50:49;;;;;;;12.70;5.57;;;;;;;2.91;100.00;96857.56;5090815;28;24467;-71
2022/03/15 01:53:16;;;;;;;9.80;5.65;;;;;;;3.04;100.00;96858.25;5090612;28;24998;-71
2022/03/15 01:55:45;;;;;;;8.40;5.18;;;;;;;3.34;100.00;96859.44;5090856;28;24425;-71
2022/03/15 01:58:11;;;;;;;8.17;5.07;;;;;;;3.26;100.00;96856.16;5090681;28;25031;-71
2022/03/15 02:00:38;;;;;;;6.93;4.90;;;;;;;3.09;100.00;96861.56;5089681;28;24422;-71
2022/03/15 02:03:05;;;;;;;8.13;4.90;;;;;;;3.05;100.00;96865.03;5090433;28;24426;-71
2022/03/15 02:05:31;;;;;;;6.55;5.03;;;;;;;3.01;100.00;96860.84;5090466;28;24443;-71
2022/03/15 02:08:07;;;;;;;8.60;5.00;;;;;;;3.02;100.00;96859.97;5090660;28;24418;-71
2022/03/15 02:10:34;;;;;;;8.77;5.28;;;;;;;3.07;100.00;96855.59;5090326;28;24993;-71
2022/03/15 02:13:02;;;;;;;8.18;5.13;;;;;;;3.03;100.00;96858.25;5090520;28;24483;-71
2022/03/15 02:15:28;;;;;;;7.00;4.97;;;;;;;3.03;100.00;96841.16;5090420;28;24902;-71
2022/03/15 02:17:55;;;;;;;9.20;5.13;;;;;;;3.10;100.00;96839.38;5090284;28;24426;-71
2022/03/15 02:20:22;;;;;;;8.52;5.40;;;;;;;3.17;100.00;96842.69;5090411;28;24418;-71
2022/03/15 02:22:49;;;;;;;12.52;6.25;;;;;;;3.17;100.00;96843.50;5090404;28;24632;-71
2022/03/15 02:25:16;;;;;;;9.13;6.40;;;;;;;3.17;100.00;96835.84;5090609;28;24436;-71
2022/03/15 02:27:42;;;;;;;9.35;5.20;;;;;;;3.33;100.00;96838.97;5090312;28;24433;-71
2022/03/15 02:30:11;;;;;;;11.23;6.23;;;;;;;3.19;100.00;96840.91;5090213;28;24437;-70
2022/03/15 02:32:38;;;;;;;9.40;6.03;;;;;;;3.03;100.00;96841.16;5090195;28;24418;-70
2022/03/15 02:35:06;;;;;;;8.30;5.45;;;;;;;3.05;100.00;96841.16;5090220;28;24985;-70
2022/03/15 02:37:34;;;;;;;7.68;5.57;;;;;;;3.09;100.00;96840.25;5090446;28;24418;-70
2022/03/15 02:40:00;;;;;;;13.60;6.30;;;;;;;3.12;100.00;96829.97;5090115;28;24454;-70
2022/03/15 02:42:27;;;;;;;8.95;5.50;;;;;;;3.18;100.00;96834.97;5090326;28;24491;-70
2022/03/15 02:44:53;;;;;;;8.40;5.65;;;;;;;3.21;100.00;96824.66;5090153;28;24475;-70
2022/03/15 02:47:20;;;;;;;7.03;5.85;;;;;;;3.45;100.00;96825.97;5090344;28;24492;-70
2022/03/15 02:49:47;;;;;;;8.82;5.68;;;;;;;3.34;100.00;96823.59;5090223;28;24517;-70
2022/03/15 02:52:15;;;;;;;8.30;5.77;;;;;;;3.27;100.00;96823.75;5090334;28;24449;-70
2022/03/15 02:54:42;;;;;;;7.70;5.72;;;;;;;3.32;100.00;96827.06;5090146;28;24961;-70
2022/03/15 02:57:10;;;;;;;8.23;5.30;;;;;;;3.34;100.00;96820.19;5090099;28;24524;-70
2022/03/15 02:59:38;;;;;;;8.43;5.22;;;;;;;3.23;100.00;96817.81;5089926;28;24479;-70
2022/03/15 03:02:06;;;;;;;10.70;5.97;;;;;;;3.26;100.00;96822.03;5090069;28;24464;-70
2022/03/15 03:04:32;;;;;;;8.93;5.82;;;;;;;3.17;100.00;96825.59;5090288;28;24905;-70
2022/03/15 03:07:01;;;;;;;9.32;5.45;;;;;;;3.22;100.00;96820.41;5089953;28;24845;-70
2022/03/15 03:09:28;;;;;;;11.30;5.65;;;;;;;3.25;100.00;96818.63;5089899;28;24507;-70
2022/03/15 03:11:55;;;;;;;10.63;6.50;;;;;;;3.23;100.00;96825.50;5090040;28;24943;-71
2022/03/15 03:14:22;;;;;;;11.52;7.45;;;;;;;3.03;100.00;96815.59;5093588;28;24453;-71
2022/03/15 03:16:49;;;;;;;14.17;7.50;;;;;;;3.04;100.00;96812.19;5129642;22;24470;-78
2022/03/15 03:19:15;;;;;;;11.02;7.43;;;;;;;3.15;100.00;96810.28;5062500;28;24435;-77
2022/03/15 03:21:42;;;;;;;16.70;6.80;;;;;;;3.14;100.00;96816.25;5061553;28;24439;-77
2022/03/15 03:24:09;;;;;;;12.48;7.07;;;;;;;3.16;100.00;96806.00;5062479;28;24442;-77
2022/03/15 03:26:39;;;;;;;11.33;7.27;;;;;;;3.35;100.00;96812.47;5061645;28;24439;-77
2022/03/15 03:29:09;;;;;;;11.48;6.88;;;;;;;3.35;100.00;96801.41;5062119;28;24431;-77
2022/03/15 03:31:37;;;;;;;10.10;6.13;;;;;;;3.23;100.00;96801.63;5062799;28;24530;-77
2022/03/15 03:34:04;;;;;;;12.32;7.18;;;;;;;3.17;100.00;96805.13;5062405;28;24496;-77
2022/03/15 03:36:32;;;;;;;9.97;5.70;;;;;;;3.21;100.00;96803.34;5062196;28;24511;-77
2022/03/15 03:38:59;;;;;;;10.40;6.20;;;;;;;3.26;100.00;96804.94;5061230;28;24424;-76
2022/03/15 03:41:26;;;;;;;8.30;5.85;;;;;;;3.33;100.00;96793.72;5062015;28;24443;-77
2022/03/15 03:43:52;;;;;;;10.18;5.60;;;;;;;3.31;100.00;96803.16;5062278;28;24506;-77
2022/03/15 03:46:20;;;;;;;9.20;5.10;;;;;;;3.38;100.00;96802.19;5061679;28;24441;-77
2022/03/15 03:48:47;;;;;;;7.68;3.55;;;;;;;3.44;100.00;96796.09;5061778;28;24441;-76
2022/03/15 03:51:15;;;;;;;7.70;4.03;;;;;;;3.43;100.00;96780.78;5062038;28;24453;-77
2022/03/15 03:53:41;;;;;;;14.75;5.93;;;;;;;3.38;100.00;96785.97;5060713;28;24828;-77
2022/03/15 03:56:08;;;;;;;7.17;5.10;;;;;;;3.32;100.00;96786.09;5059741;28;24804;-77
2022/03/15 03:58:35;;;;;;;8.82;5.47;;;;;;;3.44;100.00;96782.44;5059204;28;24473;-76
2022/03/15 04:01:03;;;;;;;12.93;5.53;;;;;;;3.27;100.00;96796.41;5061021;28;24465;-77
2022/03/15 04:03:32;;;;;;;9.90;4.33;;;;;;;3.25;100.00;96800.69;5059046;28;24524;-77
2022/03/15 04:06:01;;;;;;;4.70;3.40;;;;;;;3.27;100.00;96796.41;5060569;28;24422;-76
2022/03/15 04:08:28;;;;;;;5.25;3.45;;;;;;;3.29;100.00;96786.97;5060084;28;24440;-76
2022/03/15 04:10:54;;;;;;;4.97;2.95;;;;;;;3.31;100.00;96792.94;5059895;28;24415;-78
2022/03/15 04:13:21;;;;;;;6.30;3.10;;;;;;;3.32;100.00;96792.03;5059657;28;24426;-77
2022/03/15 04:15:49;;;;;;;4.80;2.83;;;;;;;3.29;100.00;96791.25;5059828;28;24426;-76
2022/03/15 04:18:15;;;;;;;7.07;3.35;;;;;;;3.14;100.00;96798.31;5059189;28;24424;-77
2022/03/15 04:20:44;;;;;;;5.27;3.10;;;;;;;3.11;100.00;96793.25;5059081;28;24424;-77
2022/03/15 04:23:11;;;;;;;5.30;2.67;;;;;;;3.21;100.00;96788.84;5058968;28;24447;-77
2022/03/15 04:25:37;;;;;;;5.40;3.20;;;;;;;3.45;100.00;96787.56;5059606;28;24419;-77
2022/03/15 04:28:04;;;;;;;5.82;4.05;;;;;;;3.25;100.00;96790.47;5060692;28;24469;-76
2022/03/15 04:30:33;;;;;;;6.40;3.67;;;;;;;3.16;100.00;96788.09;5060495;28;24408;-76
2022/03/15 04:33:01;;;;;;;5.13;3.03;;;;;;;3.17;100.00;96786.34;5060156;28;24428;-76
2022/03/15 04:35:28;;;;;;;4.93;3.23;;;;;;;3.19;100.00;96789.72;5060292;28;24462;-76
2022/03/15 04:37:57;;;;;;;6.63;3.33;;;;;;;3.25;100.00;96779.38;5060166;28;24530;-77
2022/03/15 04:40:23;;;;;;;7.27;3.43;;;;;;;3.32;100.00;96770.72;5059394;28;24431;-76
2022/03/15 04:42:52;;;;;;;6.75;3.45;;;;;;;3.39;100.00;96777.41;5059979;28;24454;-76
2022/03/15 04:45:19;;;;;;;5.88;4.28;;;;;;;3.39;100.00;96783.38;5059294;28;24995;-76
2022/03/15 04:47:46;;;;;;;7.65;4.35;;;;;;;3.25;100.00;96782.78;5059883;28;24438;-77
2022/03/15 04:50:13;;;;;;;7.40;4.68;;;;;;;3.21;100.00;96778.59;5060076;28;24469;-77
2022/03/15 04:52:40;;;;;;;9.88;4.68;;;;;;;3.13;100.00;96780.44;5061035;28;24599;-77
2022/03/15 04:55:08;;;;;;;7.43;4.55;;;;;;;3.12;100.00;96774.50;5059753;28;24793;-77
2022/03/15 04:57:35;;;;;;;8.75;4.25;;;;;;;3.16;100.00;96772.72;5059352;28;24427;-75
2022/03/15 05:00:08;;;;;;;7.20;4.50;;;;;;;3.22;100.00;96764.91;5059638;28;24426;-76
2022/03/15 05:02:35;;;;;;;11.18;4.90;;;;;;;3.10;100.00;96765.13;5059979;28;24511;-76
2022/03/15 05:05:01;;;;;;;8.10;4.23;;;;;;;3.05;100.00;96757.56;5059647;28;24433;-76
2022/03/15 05:07:29;;;;;;;9.37;5.27;;;;;;;3.15;100.00;96758.22;5059170;28;24465;-75
2022/03/15 05:12:51;;;;;;;12.15;5.00;;;;;;;3.06;100.00;96749.00;5060764;28;24457;-76
2022/03/15 05:15:18;;;;;;;8.95;5.30;;;;;;;2.90;100.00;96745.03;5058702;28;24423;-76
2022/03/15 05:17:45;;;;;;;7.30;4.90;;;;;;;2.87;100.00;96743.34;5058462;28;24444;-76
2022/03/15 05:20:14;;;;;;;8.00;4.47;;;;;;;2.97;100.00;96749.16;5058509;28;24960;-76
2022/03/15 05:22:40;;;;;;;8.93;4.72;;;;;;;3.06;100.00;96750.72;5058167;28;24448;-78
2022/03/15 05:25:09;;;;;;;7.40;4.40;;;;;;;3.12;100.00;96754.00;5057710;28;24442;-77
2022/03/15 05:27:36;;;;;;;9.80;4.70;;;;;;;3.17;100.00;96753.09;5054183;28;24447;-76
2022/03/15 05:30:05;;;;;;;4.53;3.33;;;;;;;3.19;100.00;96752.19;5016127;28;24460;-77
2022/03/15 05:32:32;;;;;;;7.30;2.67;;;;;;;3.13;100.00;96750.56;5014948;28;24459;-76
2022/03/15 05:34:59;;;;;;;8.80;3.08;;;;;;;3.12;100.00;96750.63;5016011;28;24409;-76
2022/03/15 05:37:26;;;;;;;3.92;2.40;;;;;;;3.12;100.00;96748.06;5017630;28;24490;-77
2022/03/15 05:39:52;;;;;;;4.80;2.78;;;;;;;3.21;100.00;96753.00;5016038;28;24438;-76
2022/03/15 05:42:19;;;;;;;5.18;2.70;;;;;;;3.23;100.00;96740.19;5015732;28;24443;-77
2022/03/15 05:44:46;;;;;;;5.93;2.83;;;;;;;3.28;100.00;96735.81;5016146;28;24452;-77
2022/03/15 05:47:14;;;;;;;5.35;2.63;;;;;;;3.30;100.00;96740.03;5015463;28;24428;-76
2022/03/15 05:49:41;;;;;;;4.13;2.60;;;;;;;3.29;100.00;96735.78;5014618;28;24973;-77
2022/03/15 05:52:08;;;;;;;5.27;2.47;;;;;;;3.33;100.00;96728.88;5015279;28;24432;-76
2022/03/15 05:54:35;;;;;;;5.15;2.75;;;;;;;3.32;100.00;96724.63;5015075;28;25219;-76
2022/03/15 05:57:02;;;;;;;5.10;2.60;;;;;;;3.42;100.00;96733.84;5015067;28;24984;-76
2022/03/15 05:59:29;;;;;;;4.05;2.40;;;;;;;3.41;100.00;96727.00;5015545;28;24508;-77
2022/03/15 06:01:56;;;;;;;12.05;2.85;;;;;;;3.44;100.00;96724.38;5015991;28;24427;-77
2022/03/15 06:04:25;;;;;;;3.97;2.60;;;;;;;3.44;100.00;96729.50;5014477;28;24448;-74
2022/03/15 06:06:52;;;;;;;7.30;2.63;;;;;;;3.38;100.00;96734.78;5028352;28;24592;-73
2022/03/15 06:09:18;;;;;;;7.72;2.60;;;;;;;3.21;100.00;96735.06;5050467;28;24427;-74
2022/03/15 06:11:45;;;;;;;6.00;2.80;;;;;;;3.19;100.00;96731.72;5050980;28;24427;-74
2022/03/15 06:14:12;;;;;;;5.50;3.30;;;;;;;3.09;100.00;96728.47;5050863;28;24411;-74
2022/03/15 06:16:38;;;;;;;6.05;2.75;;;;;;;3.18;100.00;96726.59;5050414;28;24622;-69
2022/03/15 06:19:05;;;;;;;5.15;2.75;;;;;;;3.26;100.00;96724.75;5050676;28;24422;-73
2022/03/15 06:21:33;;;;;;;4.72;3.00;;;;;;;3.25;100.00;96725.63;5050285;28;24975;-74
2022/03/15 06:24:00;;;;;;;7.22;3.08;;;;;;;3.19;100.00;96730.84;5050461;28;24443;-74
2022/03/15 06:26:26;;;;;;;3.60;2.83;;;;;;;3.19;100.00;96735.97;5050378;28;24523;-74
2022/03/15 06:28:53;;;;;;;10.63;3.05;;;;;;;3.10;100.00;96729.31;5050244;28;24427;-74
2022/03/15 06:31:20;;;;;;;7.43;3.13;;;;;;;3.29;100.00;96733.22;5050226;28;24485;-74
2022/03/15 06:33:47;;;;;;;5.38;2.53;;;;;;;3.24;100.00;96732.47;5050010;28;25014;-74
2022/03/15 06:36:15;;;;;;;3.93;2.30;;;;;;;3.29;100.00;96732.38;5050336;28;24442;-74
2022/03/15 06:38:43;;;;;;;7.47;3.00;;;;;;;3.22;100.00;96735.91;5050115;28;24435;-73
2022/03/15 06:41:10;;;;;;;5.60;2.50;;;;;;;3.24;100.00;96736.75;5050445;28;24477;-74
2022/03/15 06:43:38;;;;;;;3.75;2.15;;;;;;;3.26;100.00;96733.25;5050182;28;24801;-75
2022/03/15 06:46:04;;;;;;;8.27;2.67;;;;;;;3.34;100.00;96738.25;5050288;28;24436;-75
2022/03/15 06:48:31;;;;;;;6.40;2.67;;;;;;;3.34;100.00;96731.44;5052864;28;24805;-75
2022/03/15 06:50:57;;;;;;;18.17;3.30;;;;;;;3.31;100.00;96734.03;5053855;28;24469;-75
2022/03/15 06:53:24;;;;;;;8.25;3.20;;;;;;;3.47;100.00;96734.59;5054159;28;24419;-75
2022/03/15 06:55:52;;;;;;;5.13;3.03;;;;;;;3.52;100.00;96726.81;5054642;28;24789;-75
2022/03/15 06:58:18;;;;;;;7.65;3.40;;;;;;;3.43;100.00;96729.56;5054955;28;24424;-76
2022/03/15 07:00:45;;;;;;;10.52;3.40;;;;;;;3.43;100.00;96737.25;5054503;28;24813;-76
2022/03/15 07:03:11;;;;;;;5.38;3.38;;;;;;;3.57;100.00;96727.56;5054689;28;24443;-74
2022/03/15 07:05:38;;;;;;;5.70;2.60;;;;;;;3.69;100.00;96721.34;5053860;28;25143;-74
2022/03/15 07:08:06;;;;;;;8.27;3.20;;;;;;;3.80;100.00;96725.38;5053701;28;24446;-73
2022/03/15 07:10:33;;;;;;;4.88;3.15;;;;;;;3.91;100.00;96724.31;5053539;28;24421;-76
2022/03/15 07:13:01;;;;;;;4.25;2.58;;;;;;;4.00;100.00;96727.50;5053566;28;24956;-72
2022/03/15 07:15:27;;;;;;;5.97;2.47;;;;;;;4.04;100.00;96729.16;5053587;28;24446;-74
2022/03/15 07:17:56;;;;;;;6.78;2.50;;;;;;;4.04;100.00;96729.16;5053100;28;24478;-73
2022/03/15 07:20:23;;;;;;;4.75;2.75;;;;;;;3.96;100.00;96719.91;5051996;28;24782;-72
2022/03/15 07:22:50;;;;;;;6.15;2.78;;;;;;;3.97;100.00;96727.59;5042461;28;24457;-72
2022/03/15 07:25:17;;;;;;;5.43;2.65;;;;;;;3.99;100.00;96722.44;5053101;28;24431;-74
2022/03/15 07:27:44;;;;;;;5.38;2.40;;;;;;;3.97;100.00;96725.03;5053226;28;24785;-74
2022/03/15 07:30:13;;;;;;;4.45;2.55;;;;;;;4.01;100.00;96716.41;5052909;28;24411;-73
2022/03/15 07:32:39;;;;;;;3.63;2.38;;;;;;;4.13;100.00;96717.84;5052717;28;24451;-73
2022/03/15 07:35:07;;;;;;;5.45;2.35;;;;;;;4.16;100.00;96717.78;5052908;28;24827;-72
2022/03/15 07:37:34;;;;;;;5.57;2.40;;;;;;;4.10;100.00;96713.63;5052976;28;24518;-73
2022/03/15 07:40:00;;;;;;;9.38;3.17;;;;;;;4.11;100.00;96717.84;5053167;28;24781;-73
2022/03/15 07:42:27;;;;;;;6.82;2.80;;;;;;;4.16;100.00;96709.25;5053428;28;24797;-73
2022/03/15 07:44:53;;;;;;;4.63;2.58;;;;;;;4.27;100.00;96715.81;5052200;28;24438;-73
2022/03/15 07:47:21;;;;;;;9.63;3.08;;;;;;;4.27;100.00;96713.25;5052964;28;24439;-73
2022/03/15 07:49:48;;;;;;;4.43;2.65;;;;;;;4.32;100.00;96713.97;5047695;28;24447;-72
2022/03/15 07:52:15;;;;;;;4.37;2.50;;;;;;;4.35;100.00;96713.06;5042918;28;24432;-73
2022/03/15 07:54:42;;;;;;;5.20;2.63;;;;;;;4.40;100.00;96710.41;5043025;28;24434;-73
2022/03/15 07:57:09;;;;;;;7.32;4.75;;;;;;;4.37;100.00;96711.28;5035547;28;25059;-71
2022/03/15 07:59:36;;;;;;;10.07;4.78;;;;;;;4.40;100.00;96708.66;5031463;28;24781;-73
2022/03/15 08:02:03;;;;;;;4.82;3.20;;;;;;;4.46;100.00;96703.41;5032712;28;24431;-73
2022/03/15 08:04:30;;;;;;;4.25;2.78;;;;;;;4.52;100.00;96699.84;5032387;28;24450;-76
2022/03/15 08:06:57;;;;;;;6.25;2.72;;;;;;;4.55;100.00;96699.75;5031284;28;24440;-75
2022/03/15 08:09:23;;;;;;;4.25;2.78;;;;;;;4.61;100.00;96708.16;5031750;28;24447;-76
2022/03/15 08:11:50;;;;;;;5.28;2.95;;;;;;;4.64;100.00;96707.25;5032150;28;24495;-75
2022/03/15 08:14:16;;;;;;;5.07;3.22;;;;;;;4.72;100.00;96697.63;5032048;28;24432;-75
2022/03/15 08:16:43;;;;;;;7.15;3.20;;;;;;;4.79;100.00;96695.78;5031522;28;24430;-75
2022/03/15 08:19:11;;;;;;;7.23;3.10;;;;;;;4.81;100.00;96687.13;5011959;28;24448;-75
2022/03/15 08:21:39;;;;;;;7.07;3.08;;;;;;;4.91;100.00;96689.47;5012368;28;24436;-75
2022/03/15 08:24:06;;;;;;;9.07;3.60;;;;;;;4.99;100.00;96687.53;5012124;28;24993;-74
2022/03/15 08:26:32;;;;;;;4.80;3.00;;;;;;;5.00;100.00;96690.06;5012441;28;24422;-76
2022/03/15 08:28:59;;;;;;;8.05;3.78;;;;;;;5.04;100.00;96685.69;5013125;28;24436;-76
2022/03/15 08:31:25;;;;;;;5.80;3.70;;;;;;;5.02;100.00;96692.59;5012477;28;24436;-76
2022/03/15 08:33:52;;;;;;;11.52;4.50;;;;;;;4.96;100.00;96693.59;5012230;28;24439;-76
2022/03/15 08:36:19;;;;;;;6.20;4.05;;;;;;;5.01;100.00;96698.63;5011520;28;24420;-75
2022/03/15 08:38:48;;;;;;;7.28;4.88;;;;;;;5.04;100.00;96699.41;5029834;28;24443;-76
2022/03/15 08:41:14;;;;;;;9.20;5.15;;;;;;;4.82;100.00;96698.22;5031882;28;24446;-75
2022/03/15 08:43:41;;;;;;;15.53;7.10;;;;;;;4.82;100.00;96696.53;5032041;28;24436;-75
2022/03/15 08:46:07;;;;;;;9.80;6.80;;;;;;;4.86;100.00;96705.00;5038806;28;24978;-76
2022/03/15 08:48:35;;;;;;;10.20;6.20;;;;;;;4.90;100.00;96692.94;5027840;28;24443;-76
2022/03/15 08:51:02;;;;;;;12.55;7.80;;;;;;;4.93;100.00;96697.97;5031569;28;24430;-76
2022/03/15 08:53:29;;;;;;;13.63;7.90;;;;;;;4.93;100.00;96691.13;5031791;28;24439;-76
2022/03/15 08:55:57;;;;;;;11.20;7.57;;;;;;;5.01;100.00;96698.63;5011179;28;24802;-73
2022/03/15 08:58:23;;;;;;;12.38;7.13;;;;;;;5.02;100.00;96698.56;5025619;28;24451;-73
2022/03/15 09:00:50;;;;;;;22.27;6.85;;;;;;;5.05;100.00;96695.94;5031594;28;25032;-74
2022/03/15 09:03:17;;;;;;;12.63;5.50;;;;;;;5.06;100.00;96692.47;5031499;28;24440;-74
2022/03/15 09:05:44;;;;;;;10.52;6.03;;;;;;;5.08;100.00;96688.16;5030899;28;24428;-75
2022/03/15 09:08:10;;;;;;;11.23;5.05;;;;;;;5.10;100.00;96683.81;5030728;28;24841;-75
2022/03/15 09:10:39;;;;;;;7.20;4.70;;;;;;;5.19;100.00;96674.16;5030085;28;24435;-74
2022/03/15 09:13:09;;;;;;;11.25;4.43;;;;;;;5.22;100.00;96664.66;5031542;28;24519;-75
2022/03/15 09:15:36;;;;;;;7.70;4.38;;;;;;;5.29;100.00;96655.91;5031092;28;24492;-75
2022/03/15 09:18:03;;;;;;;6.65;3.58;;;;;;;5.34;100.00;96653.22;5029961;28;24448;-75
2022/03/15 09:20:29;;;;;;;5.68;3.63;;;;;;;5.39;100.00;96651.34;5031300;28;24436;-75
2022/03/15 09:22:56;;;;;;;6.40;3.63;;;;;;;5.46;100.00;96647.72;5049592;28;24403;-74
2022/03/15 09:25:24;;;;;;;5.20;3.00;;;;;;;5.48;100.00;96647.69;5052836;28;24431;-76
2022/03/15 09:27:51;;;;;;;9.88;3.42;;;;;;;5.54;100.00;96648.34;5035329;28;24957;-77
2022/03/15 09:30:19;;;;;;;9.15;3.47;;;;;;;5.55;100.00;96639.75;5034030;28;24418;-76
2022/03/15 09:32:45;;;;;;;5.97;3.85;;;;;;;5.61;100.00;96637.91;5031956;28;24424;-75
2022/03/15 09:35:13;;;;;;;6.68;4.03;;;;;;;5.69;100.00;96623.09;5030728;28;24428;-76
2022/03/15 09:37:41;;;;;;;7.25;3.45;;;;;;;5.74;100.00;96628.91;5030299;28;24439;-75
2022/03/15 09:40:10;;;;;;;8.02;3.67;;;;;;;5.78;100.00;96620.22;5030210;28;24473;-75
2022/03/15 09:42:37;;;;;;;7.95;3.63;;;;;;;5.81;100.00;96622.72;5030939;28;24435;-75
2022/03/15 09:45:05;;;;;;;4.90;3.03;;;;;;;5.80;100.00;96608.19;5030829;28;24443;-76
2022/03/15 09:47:35;;;;;;;5.53;3.45;;;;;;;5.80;100.00;96613.31;5032180;28;24412;-75
2022/03/15 09:50:05;;;;;;;5.30;3.45;;;;;;;5.76;100.00;96593.75;5030960;28;24428;-75
2022/03/15 09:52:33;;;;;;;6.45;3.33;;;;;;;5.80;100.00;96585.88;5029610;28;24443;-75
2022/03/15 09:55:00;;;;;;;4.80;3.35;;;;;;;5.85;100.00;96583.16;5030522;28;24960;-75
2022/03/15 09:57:27;;;;;;;6.57;3.60;;;;;;;5.83;100.00;96574.69;5017961;28;24436;-76
2022/03/15 09:59:59;;;;;;;7.50;3.63;;;;;;;5.85;100.00;96578.03;5029882;28;24416;-76
2022/03/15 10:02:26;;;;;;;4.88;3.22;;;;;;;5.88;100.00;96571.97;5029971;28;24451;-76
2022/03/15 10:04:54;;;;;;;10.55;3.47;;;;;;;5.89;100.00;96563.34;5029057;28;24452;-77
2022/03/15 10:07:21;;;;;;;5.38;3.70;;;;;;;5.93;100.00;96559.81;5021923;28;24450;-75
2022/03/15 10:09:48;;;;;;;7.65;3.35;;;;;;;5.91;100.00;96553.88;5011856;28;24428;-78
2022/03/15 10:12:14;;;;;;;8.13;4.20;;;;;;;5.89;100.00;96548.75;5010971;28;24803;-77
2022/03/15 10:14:42;;;;;;;6.07;3.95;;;;;;;5.88;100.00;96548.81;5012003;28;24428;-76
2022/03/15 10:17:11;;;;;;;7.50;3.95;;;;;;;5.87;100.00;96552.28;5026491;28;24559;-75
2022/03/15 10:19:37;;;;;;;8.75;4.55;;;;;;;5.75;100.00;96545.81;5030801;28;24530;-76
2022/03/15 10:22:09;;;;;;;6.70;4.15;;;;;;;5.61;100.00;96542.81;5030855;28;24407;-76
2022/03/15 10:24:38;;;;;;;7.50;4.85;;;;;;;5.51;100.00;96537.09;5034239;28;24498;-76
2022/03/15 10:27:08;;;;;;;8.68;5.15;;;;;;;5.45;100.00;96540.72;5034412;28;24435;-78
2022/03/15 10:29:36;;;;;;;6.78;4.57;;;;;;;5.51;100.00;96540.50;5035758;28;24431;-75
2022/03/15 10:32:03;;;;;;;7.90;4.97;;;;;;;5.58;100.00;96544.59;5038290;28;24531;-75
2022/03/15 10:34:30;;;;;;;7.93;4.60;;;;;;;5.61;100.00;96548.78;5037930;28;24435;-75
2022/03/15 10:36:57;;;;;;;9.50;5.28;;;;;;;5.63;100.00;96539.28;5036696;28;24478;-73
2022/03/15 10:39:26;;;;;;;14.00;5.55;;;;;;;5.62;100.00;96529.91;5036437;28;24432;-75
2022/03/15 10:41:55;;;;;;;7.78;5.50;;;;;;;5.60;100.00;96534.28;5050788;28;24438;-75
2022/03/15 10:44:24;;;;;;;6.30;4.65;;;;;;;5.62;100.00;96523.94;5055098;28;24443;-75
2022/03/15 10:46:59;;;;;;;11.60;4.40;;;;;;;5.67;100.00;96517.75;5031084;28;24437;-76
2022/03/15 10:49:26;;;;;;;8.57;4.82;;;;;;;5.71;100.00;96510.78;5015009;28;24456;-76
2022/03/15 10:51:52;;;;;;;7.70;4.18;;;;;;;5.77;100.00;96508.03;5014931;28;24471;-76
2022/03/15 10:54:24;;;;;;;5.83;3.97;;;;;;;5.80;100.00;96503.63;5014825;28;24455;-76
2022/03/15 10:56:57;;;;;;;5.65;3.40;;;;;;;5.86;100.00;96494.91;5014844;28;24425;-77
2022/03/15 10:59:23;;;;;;;5.18;3.25;;;;;;;5.86;100.00;96488.88;5014565;28;24417;-77
2022/03/15 11:01:51;;;;;;;4.95;3.08;;;;;;;5.93;100.00;96482.69;5015086;28;25021;-76
2022/03/15 11:04:18;;;;;;;4.65;2.85;;;;;;;5.96;100.00;96480.84;5014376;28;24471;-77
2022/03/15 11:06:47;;;;;;;4.68;3.33;;;;;;;5.97;100.00;96481.69;5013794;28;24432;-76
2022/03/15 11:09:19;;;;;;;4.70;3.13;;;;;;;6.02;100.00;96483.22;5013795;28;24428;-77
2022/03/15 11:11:46;;;;;;;4.47;2.87;;;;;;;5.99;100.00;96472.22;5014145;28;24463;-77
2022/03/15 11:14:15;;;;;;;7.15;3.60;;;;;;;6.09;100.00;96472.75;5015251;28;24731;-77
2022/03/15 11:16:46;;;;;;;5.80;3.65;;;;;;;6.10;100.00;96470.13;5013491;28;24498;-76
2022/03/15 11:19:13;;;;;;;4.50;3.15;;;;;;;6.11;100.00;96465.81;5013669;28;24479;-76
2022/03/15 11:21:43;;;;;;;5.85;3.75;;;;;;;6.07;100.00;96477.94;5013566;28;25021;-76
2022/03/15 11:24:12;;;;;;;5.15;3.60;;;;;;;6.19;100.00;96474.09;5013980;28;24799;-76
2022/03/15 11:26:44;;;;;;;5.35;3.22;;;;;;;6.22;100.00;96474.84;5013573;28;24439;-74
2022/03/15 11:29:12;;;;;;;6.13;3.28;;;;;;;6.18;100.00;96469.84;5013603;28;24413;-76
2022/03/15 11:31:41;;;;;;;5.60;3.25;;;;;;;6.16;100.00;96461.38;5013557;28;24441;-76
2022/03/15 11:34:07;;;;;;;8.52;3.22;;;;;;;6.20;100.00;96462.94;5013012;28;24420;-75